createdAt,value
2019-01-21T00:01:54.293Z,101853.39
2019-01-21T00:04:26.202Z,101853.31
2019-01-21T00:06:57.609Z,101847.48
2019-01-21T00:09:28.995Z,101858.54
2019-01-21T00:12:00.466Z,101847.09
2019-01-21T00:14:32.339Z,101851.44
2019-01-21T00:17:04.117Z,101841.41
2019-01-21T00:19:35.593Z,101840.21
2019-01-21T00:22:06.982Z,101850.57
2019-01-21T00:24:38.381Z,101848.88
2019-01-21T00:27:09.791Z,101849.00
2019-01-21T00:29:41.494Z,101849.80
2019-01-21T00:32:12.996Z,101849.80
2019-01-21T00:34:44.403Z,101844.09
2019-01-21T00:37:15.900Z,101853.16
2019-01-21T00:39:48.097Z,101853.30
2019-01-21T00:42:19.515Z,101856.25
2019-01-21T00:44:50.917Z,101853.20
2019-01-21T00:47:29.583Z,101848.11
2019-01-21T00:49:55.924Z,101847.47
2019-01-21T00:52:27.345Z,101844.86
2019-01-21T00:54:58.775Z,101850.89
2019-01-21T00:57:30.171Z,101856.81
2019-01-21T01:00:01.608Z,101860.74
2019-01-21T01:02:33.063Z,101861.73
2019-01-21T01:05:05.680Z,101859.73
2019-01-21T01:07:37.267Z,101854.53
2019-01-21T01:10:10.224Z,101855.20
2019-01-21T01:12:41.631Z,101860.66
2019-01-21T01:15:13.303Z,101858.81
2019-01-21T01:17:44.779Z,101855.25
2019-01-21T01:20:19.511Z,101861.63
2019-01-21T01:22:51.885Z,101856.16
2019-01-21T01:25:23.295Z,101862.09
2019-01-21T01:27:54.702Z,101866.22
2019-01-21T01:30:25.916Z,101864.73
2019-01-21T01:32:57.174Z,101857.49
2019-01-21T01:35:28.414Z,101867.19
2019-01-21T01:37:59.606Z,101857.50
2019-01-21T01:40:30.810Z,101866.42
2019-01-21T01:43:02.499Z,101861.95
2019-01-21T01:45:33.977Z,101878.21
2019-01-21T01:48:06.023Z,101868.38
2019-01-21T01:50:37.216Z,101873.31
2019-01-21T01:53:08.449Z,101868.67
2019-01-21T01:55:39.626Z,101869.84
2019-01-21T01:58:10.834Z,101865.72
2019-01-21T02:00:42.657Z,101866.95
2019-01-21T02:03:13.869Z,101870.72
2019-01-21T02:05:45.217Z,101869.23
2019-01-21T02:08:16.783Z,101873.42
2019-01-21T02:10:48.163Z,101872.44
2019-01-21T02:13:19.397Z,101866.42
2019-01-21T02:15:50.737Z,101866.42
2019-01-21T02:18:21.933Z,101868.52
2019-01-21T02:20:54.808Z,101859.39
2019-01-21T02:23:31.904Z,101869.08
2019-01-21T02:26:04.665Z,101865.47
2019-01-21T02:29:18.560Z,101867.44
2019-01-21T02:32:19.194Z,101857.80
2019-01-21T02:35:46.714Z,101859.09
2019-01-21T02:38:53.621Z,101865.50
2019-01-21T02:41:48.012Z,101860.20
2019-01-21T02:45:00.743Z,101856.22
2019-01-21T02:47:46.578Z,101863.78
2019-01-21T02:51:05.467Z,101856.16
2019-01-21T02:54:01.867Z,101865.20
2019-01-21T02:57:16.137Z,101854.84
2019-01-21T03:00:19.634Z,101857.70
2019-01-21T03:03:26.580Z,101858.01
2019-01-21T03:06:21.850Z,101849.78
2019-01-21T03:09:29.625Z,101854.92
2019-01-21T03:12:24.015Z,101847.80
2019-01-21T03:15:25.175Z,101845.70
2019-01-21T03:18:38.829Z,101842.90
2019-01-21T03:21:48.562Z,101840.49
2019-01-21T03:25:08.672Z,101847.19
2019-01-21T03:28:25.990Z,101850.14
2019-01-21T03:31:42.879Z,101848.39
2019-01-21T03:35:00.750Z,101850.17
2019-01-21T03:38:24.883Z,101846.50
2019-01-21T03:41:20.308Z,101850.87
2019-01-21T03:44:17.171Z,101843.69
2019-01-21T03:47:17.006Z,101852.41
2019-01-21T03:50:41.747Z,101841.20
2019-01-21T03:53:50.106Z,101840.95
2019-01-21T03:56:47.482Z,101844.78
2019-01-21T04:00:02.563Z,101843.13
2019-01-21T04:03:20.673Z,101851.56
2019-01-21T04:06:09.814Z,101842.83
2019-01-21T04:09:11.702Z,101840.80
2019-01-21T04:12:04.740Z,101832.94
2019-01-21T04:15:22.417Z,101838.70
2019-01-21T04:18:24.643Z,101836.69
2019-01-21T04:21:29.105Z,101836.91
2019-01-21T04:24:49.362Z,101840.48
2019-01-21T04:27:34.277Z,101846.19
2019-01-21T04:30:34.402Z,101837.61
2019-01-21T04:33:29.825Z,101829.52
2019-01-21T04:36:40.729Z,101836.45
2019-01-21T04:39:23.568Z,101842.52
2019-01-21T04:42:37.799Z,101838.72
2019-01-21T04:45:55.558Z,101830.92
2019-01-21T04:49:01.017Z,101837.23
2019-01-21T04:51:59.414Z,101838.62
2019-01-21T04:55:16.680Z,101840.89
2019-01-21T04:58:01.993Z,101844.17
2019-01-21T05:01:29.361Z,101835.81
2019-01-21T05:05:06.232Z,101829.91
2019-01-21T05:08:16.975Z,101840.81
2019-01-21T05:11:21.662Z,101832.85
2019-01-21T05:14:15.121Z,101827.70
2019-01-21T05:17:24.713Z,101836.77
2019-01-21T05:20:43.016Z,101837.14
2019-01-21T05:23:51.884Z,101834.75
2019-01-21T05:26:47.867Z,101835.52
2019-01-21T05:29:50.579Z,101846.27
2019-01-21T05:33:09.147Z,101518.20
2019-01-21T05:36:16.036Z,101842.59
2019-01-21T05:39:02.595Z,101846.03
2019-01-21T05:41:43.635Z,101856.17
2019-01-21T05:44:44.376Z,101857.19
2019-01-21T05:47:36.583Z,101854.70
2019-01-21T05:50:45.119Z,101854.30
2019-01-21T05:53:55.101Z,101844.77
2019-01-21T05:57:22.625Z,101854.22
2019-01-21T06:00:23.866Z,101857.24
2019-01-21T06:03:22.926Z,101860.05
2019-01-21T06:06:23.337Z,101866.66
2019-01-21T06:09:19.805Z,101861.91
2019-01-21T06:12:18.234Z,101859.67
2019-01-21T06:15:26.652Z,101851.17
2019-01-21T06:18:34.832Z,101864.42
2019-01-21T06:21:40.628Z,101865.52
2019-01-21T06:24:35.353Z,101862.17
2019-01-21T06:27:52.592Z,101864.64
2019-01-21T06:31:07.996Z,101862.56
2019-01-21T06:34:29.850Z,101866.85
2019-01-21T06:38:11.239Z,101870.97
2019-01-21T06:41:08.169Z,101869.09
2019-01-21T06:44:06.335Z,101874.61
2019-01-21T06:47:17.091Z,101866.92
2019-01-21T06:50:37.464Z,101857.50
2019-01-21T06:53:55.387Z,101863.94
2019-01-21T06:57:01.697Z,101861.33
2019-01-21T06:59:58.498Z,101864.27
2019-01-21T07:03:18.002Z,101873.20
2019-01-21T07:06:40.689Z,101882.53
2019-01-21T07:09:55.963Z,101886.86
2019-01-21T07:13:15.217Z,101894.49
2019-01-21T07:16:20.351Z,101890.48
2019-01-21T07:19:14.086Z,101886.63
2019-01-21T07:22:02.116Z,101893.80
2019-01-21T07:24:42.393Z,101882.13
2019-01-21T07:28:13.465Z,101894.53
2019-01-21T07:31:11.854Z,101894.53
2019-01-21T07:34:18.545Z,101902.77
2019-01-21T07:37:26.920Z,101912.58
2019-01-21T07:40:38.204Z,101906.41
2019-01-21T07:43:39.764Z,101916.01
2019-01-21T07:46:50.624Z,101908.69
2019-01-21T07:49:53.472Z,101911.89
2019-01-21T07:53:05.337Z,101919.05
2019-01-21T07:56:23.200Z,101920.60
2019-01-21T07:59:22.118Z,101920.59
2019-01-21T08:02:28.804Z,101902.55
2019-01-21T08:05:33.729Z,101902.55
2019-01-21T08:08:24.002Z,101915.23
2019-01-21T08:11:32.390Z,101928.02
2019-01-21T08:14:38.266Z,101923.00
2019-01-21T08:18:05.965Z,101928.73
2019-01-21T08:20:57.090Z,101926.48
2019-01-21T08:24:01.174Z,101932.42
2019-01-21T08:27:00.135Z,101757.42
2019-01-21T08:30:07.809Z,101810.61
2019-01-21T08:33:02.622Z,101925.09
2019-01-21T08:36:32.962Z,101931.87
2019-01-21T08:39:33.840Z,101933.05
2019-01-21T08:42:36.958Z,101942.55
2019-01-21T08:45:37.029Z,101925.67
2019-01-21T08:48:50.748Z,101932.98
2019-01-21T08:51:58.543Z,101936.81
2019-01-21T08:55:31.968Z,101923.95
2019-01-21T08:58:53.568Z,101940.38
2019-01-21T09:01:48.767Z,101939.85
2019-01-21T09:05:06.535Z,101965.13
2019-01-21T09:08:18.879Z,101964.58
2019-01-21T09:11:15.239Z,101957.25
2019-01-21T09:14:34.054Z,101964.75
2019-01-21T09:17:28.808Z,101951.17
2019-01-21T09:20:29.058Z,101956.80
2019-01-21T09:23:29.328Z,101962.07
2019-01-21T09:26:37.008Z,101963.41
2019-01-21T09:29:38.836Z,101956.30
2019-01-21T09:32:46.839Z,101956.83
2019-01-21T09:35:43.656Z,101965.04
2019-01-21T09:39:02.611Z,101958.16
2019-01-21T09:42:30.579Z,101969.73
2019-01-21T09:45:33.448Z,101966.36
2019-01-21T09:48:03.989Z,101977.60
2019-01-21T09:50:35.995Z,101970.50
2019-01-21T09:53:07.381Z,101971.98
2019-01-21T09:55:39.895Z,101965.00
2019-01-21T09:58:11.175Z,101973.02
2019-01-21T10:00:43.119Z,101971.17
2019-01-21T10:03:16.146Z,101971.59
2019-01-21T10:05:48.885Z,101971.22
2019-01-21T10:08:33.618Z,101969.33
2019-01-21T10:11:42.393Z,101970.38
2019-01-21T10:14:58.445Z,101971.50
2019-01-21T10:17:43.630Z,101977.84
2019-01-21T10:20:35.005Z,101968.78
2019-01-21T10:23:28.706Z,101963.58
2019-01-21T10:26:25.342Z,101963.91
2019-01-21T10:29:19.091Z,101963.55
2019-01-21T10:32:30.503Z,101955.37
2019-01-21T10:35:43.937Z,101967.44
2019-01-21T10:38:52.722Z,101963.02
2019-01-21T10:42:08.793Z,101965.97
2019-01-21T10:45:04.041Z,101961.81
2019-01-21T10:47:44.210Z,101958.45
2019-01-21T10:51:15.578Z,101957.44
2019-01-21T10:54:25.709Z,101963.81
2019-01-21T10:57:41.244Z,101959.09
2019-01-21T11:01:09.932Z,101952.83
2019-01-21T11:04:06.575Z,101951.52
2019-01-21T11:07:08.256Z,101952.11
2019-01-21T11:10:00.869Z,101946.25
2019-01-21T11:13:05.710Z,101950.61
2019-01-21T11:15:54.126Z,101949.50
2019-01-21T11:19:10.720Z,101949.50
2019-01-21T11:22:33.455Z,101946.45
2019-01-21T11:25:21.124Z,101945.52
2019-01-21T11:28:26.285Z,101943.27
2019-01-21T11:31:19.139Z,101946.22
2019-01-21T11:34:07.184Z,101945.57
2019-01-21T11:36:52.384Z,101944.92
2019-01-21T11:39:54.460Z,101942.05
2019-01-21T11:43:04.945Z,101949.20
2019-01-21T11:46:21.280Z,101952.45
2019-01-21T11:49:13.299Z,101948.81
2019-01-21T11:52:22.604Z,101950.17
2019-01-21T11:55:10.791Z,101953.23
2019-01-21T11:58:23.626Z,101948.44
2019-01-21T12:01:37.056Z,101954.73
2019-01-21T12:05:14.816Z,101956.64
2019-01-21T12:08:24.513Z,101957.59
2019-01-21T12:11:36.849Z,101957.48
2019-01-21T12:14:49.699Z,101960.44
2019-01-21T12:17:54.528Z,101957.58
2019-01-21T12:20:53.081Z,101957.38
2019-01-21T12:23:51.160Z,101947.86
2019-01-21T12:27:02.997Z,101947.11
2019-01-21T12:30:12.861Z,101976.62
2019-01-21T12:33:36.627Z,101955.02
2019-01-21T12:36:14.720Z,101948.25
2019-01-21T12:39:07.260Z,101944.83
2019-01-21T12:42:22.554Z,101944.91
2019-01-21T12:45:18.137Z,101950.72
2019-01-21T12:48:45.729Z,101947.49
2019-01-21T12:51:51.998Z,101949.00
2019-01-21T12:55:03.984Z,101946.17
2019-01-21T12:58:25.854Z,101938.55
2019-01-21T13:01:17.502Z,101943.13
2019-01-21T13:04:12.549Z,101937.77
2019-01-21T13:07:20.034Z,101941.59
2019-01-21T13:10:23.129Z,101943.89
2019-01-21T13:13:30.089Z,101947.20
2019-01-21T13:16:35.069Z,101943.67
2019-01-21T13:20:03.160Z,101957.77
2019-01-21T13:23:09.146Z,101950.91
2019-01-21T13:26:05.286Z,101941.78
2019-01-21T13:29:19.857Z,101948.45
2019-01-21T13:32:41.248Z,101946.73
2019-01-21T13:35:46.971Z,101948.05
2019-01-21T13:38:55.447Z,101942.35
2019-01-21T13:42:25.880Z,101946.34
2019-01-21T13:45:26.215Z,101945.02
2019-01-21T13:48:36.736Z,101949.19
2019-01-21T13:51:40.454Z,101954.52
2019-01-21T13:54:45.449Z,101953.39
2019-01-21T13:57:54.759Z,101958.53
2019-01-21T14:01:13.298Z,101960.79
2019-01-21T14:04:16.342Z,101954.34
2019-01-21T14:07:19.951Z,101952.05
2019-01-21T14:10:44.522Z,101955.30
2019-01-21T14:13:52.169Z,101951.69
2019-01-21T14:16:46.344Z,101953.02
2019-01-21T14:19:54.348Z,101954.89
2019-01-21T14:23:07.273Z,101969.86
2019-01-21T14:26:24.845Z,101959.28
2019-01-21T14:29:43.584Z,101960.45
2019-01-21T14:32:57.057Z,101957.11
2019-01-21T14:36:49.889Z,101968.63
2019-01-21T14:40:07.314Z,101967.09
2019-01-21T14:43:37.397Z,101962.71
2019-01-21T14:46:45.921Z,101958.54
2019-01-21T14:49:57.505Z,101966.05
2019-01-21T14:53:08.887Z,101966.45
2019-01-21T14:56:26.581Z,101964.53
2019-01-21T14:59:15.189Z,101968.62
2019-01-21T15:02:35.912Z,101962.55
2019-01-21T15:05:45.033Z,101960.43
2019-01-21T15:08:53.956Z,101953.59
2019-01-21T15:12:02.590Z,101973.56
2019-01-21T15:15:02.795Z,101965.57
2019-01-21T15:18:00.574Z,101959.31
2019-01-21T15:21:13.955Z,101963.88
2019-01-21T15:24:24.209Z,101955.48
2019-01-21T15:27:41.893Z,101955.88
2019-01-21T15:31:02.587Z,101960.06
2019-01-21T15:34:16.286Z,101952.25
2019-01-21T15:37:45.059Z,101961.03
2019-01-21T15:40:55.849Z,101952.45
2019-01-21T15:43:54.896Z,101958.34
2019-01-21T15:47:16.664Z,101954.73
2019-01-21T15:50:46.094Z,101957.00
2019-01-21T15:54:45.273Z,101958.16
2019-01-21T15:57:53.885Z,101944.84
2019-01-21T16:01:20.420Z,101962.91
2019-01-21T16:04:42.731Z,101954.34
2019-01-21T16:07:34.486Z,101957.22
2019-01-21T16:10:55.965Z,101970.55
2019-01-21T16:13:43.958Z,101749.05
2019-01-21T16:17:10.664Z,101964.45
2019-01-21T16:19:50.159Z,101964.45
2019-01-21T16:22:50.359Z,101965.39
2019-01-21T16:25:35.064Z,101967.27
2019-01-21T16:28:30.245Z,101963.96
2019-01-21T16:31:21.133Z,101966.36
2019-01-21T16:34:38.328Z,101971.11
2019-01-21T16:37:46.797Z,101975.00
2019-01-21T16:41:07.284Z,101975.00
2019-01-21T16:43:38.465Z,101971.11
2019-01-21T16:46:09.719Z,101971.88
2019-01-21T16:48:40.924Z,101975.47
2019-01-21T16:51:20.298Z,101976.05
2019-01-21T16:53:47.567Z,101975.69
2019-01-21T16:56:18.777Z,101975.11
2019-01-21T16:58:50.864Z,101969.77
2019-01-21T17:01:22.752Z,101975.00
2019-01-21T17:03:54.240Z,101975.40
2019-01-21T17:06:25.482Z,101980.34
2019-01-21T17:08:56.731Z,101973.49
2019-01-21T17:11:27.930Z,101984.22
2019-01-21T17:13:59.116Z,101976.70
2019-01-21T17:16:30.360Z,101979.30
2019-01-21T17:19:01.820Z,101975.30
2019-01-21T17:21:33.027Z,101983.86
2019-01-21T17:24:05.456Z,101987.28
2019-01-21T17:26:37.613Z,101975.66
2019-01-21T17:29:08.884Z,101981.20
2019-01-21T17:31:41.828Z,101984.62
2019-01-21T17:34:13.114Z,101986.89
2019-01-21T17:36:44.465Z,101977.95
2019-01-21T17:39:17.024Z,101983.47
2019-01-21T17:41:56.546Z,101985.38
2019-01-21T17:44:27.791Z,101978.72
2019-01-21T17:46:59.692Z,101968.06
2019-01-21T17:49:36.752Z,101978.25
2019-01-21T17:52:08.135Z,101977.20
2019-01-21T17:54:39.397Z,101984.70
2019-01-21T17:57:12.100Z,101984.70
2019-01-21T17:59:45.456Z,101982.69
2019-01-21T18:02:16.844Z,101978.22
2019-01-21T18:04:48.259Z,101980.80
2019-01-21T18:07:19.537Z,101980.99
2019-01-21T18:09:50.815Z,101974.80
2019-01-21T18:12:22.631Z,101970.62
2019-01-21T18:14:54.519Z,101968.61
2019-01-21T18:17:25.688Z,101975.19
2019-01-21T18:20:00.161Z,101975.27
2019-01-21T18:22:49.207Z,101971.09
2019-01-21T18:25:20.574Z,101970.05
2019-01-21T18:27:51.883Z,101971.66
2019-01-21T18:30:26.565Z,101965.77
2019-01-21T18:32:57.784Z,101967.95
2019-01-21T18:35:30.399Z,101974.91
2019-01-21T18:38:03.304Z,101972.60
2019-01-21T18:40:35.595Z,101966.55
2019-01-21T18:43:09.511Z,101969.75
2019-01-21T18:45:40.737Z,101968.81
2019-01-21T18:48:12.500Z,101967.66
2019-01-21T18:50:43.759Z,101973.20
2019-01-21T18:53:15.486Z,101962.16
2019-01-21T18:55:46.671Z,101969.94
2019-01-21T18:58:17.879Z,101973.39
2019-01-21T19:00:49.236Z,101971.09
2019-01-21T19:03:20.375Z,101964.81
2019-01-21T19:05:51.593Z,101971.88
2019-01-21T19:08:22.866Z,101959.70
2019-01-21T19:10:54.330Z,101964.64
2019-01-21T19:13:25.559Z,101966.72
2019-01-21T19:15:56.766Z,101963.41
2019-01-21T19:18:28.059Z,101964.81
2019-01-21T19:20:59.384Z,101962.91
2019-01-21T19:23:30.560Z,101965.49
2019-01-21T19:26:02.364Z,101963.49
2019-01-21T19:28:33.884Z,101961.19
2019-01-21T19:31:05.237Z,101955.11
2019-01-21T19:33:36.595Z,101956.62
2019-01-21T19:36:07.815Z,101958.36
2019-01-21T19:38:42.743Z,101969.95
2019-01-21T19:41:15.339Z,101971.68
2019-01-21T19:43:46.506Z,101970.06
2019-01-21T19:46:18.978Z,101974.72
2019-01-21T19:48:51.970Z,101969.20
2019-01-21T19:51:23.435Z,101968.33
2019-01-21T19:53:55.291Z,101968.62
2019-01-21T19:56:26.541Z,101972.04
2019-01-21T19:58:57.824Z,101969.48
2019-01-21T20:01:29.067Z,101972.83
2019-01-21T20:04:00.383Z,101973.19
2019-01-21T20:06:31.642Z,101968.42
2019-01-21T20:09:02.923Z,101969.75
2019-01-21T20:11:36.311Z,101967.48
2019-01-21T20:14:07.681Z,101971.38
2019-01-21T20:16:38.918Z,101968.81
2019-01-21T20:19:10.214Z,101976.42
2019-01-21T20:21:41.510Z,101972.23
2019-01-21T20:24:12.682Z,101963.48
2019-01-21T20:26:44.378Z,101960.71
2019-01-21T20:29:17.523Z,101969.00
2019-01-21T20:31:48.863Z,101971.58
2019-01-21T20:34:21.345Z,101968.63
2019-01-21T20:36:52.447Z,101968.62
2019-01-21T20:39:23.838Z,101955.96
2019-01-21T20:41:55.536Z,101956.07
2019-01-21T20:44:26.811Z,101958.53
2019-01-21T20:46:58.023Z,101957.48
2019-01-21T20:49:29.274Z,101957.59
2019-01-21T20:52:01.547Z,101958.53
2019-01-21T20:54:32.755Z,101961.58
2019-01-21T20:57:04.072Z,101956.24
2019-01-21T20:59:35.320Z,101953.78
2019-01-21T21:02:06.780Z,101950.72
2019-01-21T21:04:42.292Z,101946.73
2019-01-21T21:07:27.477Z,101950.91
2019-01-21T21:10:11.483Z,101942.54
2019-01-21T21:12:44.808Z,101952.63
2019-01-21T21:15:22.697Z,101946.33
2019-01-21T21:18:01.335Z,101948.23
2019-01-21T21:20:43.192Z,101948.52
2019-01-21T21:23:21.009Z,101942.52
2019-01-21T21:26:05.578Z,101943.10
2019-01-21T21:28:45.392Z,101943.48
2019-01-21T21:31:18.565Z,101944.60
2019-01-21T21:33:53.173Z,101949.17
2019-01-21T21:36:29.675Z,101946.52
2019-01-21T21:39:11.651Z,101943.66
2019-01-21T21:41:49.693Z,101946.14
2019-01-21T21:44:22.772Z,101935.06
2019-01-21T21:47:02.936Z,101936.59
2019-01-21T21:49:36.824Z,101937.92
2019-01-21T21:52:08.373Z,101935.07
2019-01-21T21:54:43.147Z,101943.42
2019-01-21T21:57:19.045Z,101938.28
2019-01-21T21:59:52.266Z,101942.56
2019-01-21T22:02:27.747Z,101934.70
2019-01-21T22:05:04.382Z,101874.58
2019-01-21T22:07:38.880Z,101926.14
2019-01-21T22:10:19.703Z,101920.98
2019-01-21T22:12:51.457Z,101926.88
2019-01-21T22:15:31.624Z,101920.59
2019-01-21T22:18:15.679Z,101919.06
2019-01-21T22:20:47.775Z,101919.84
2019-01-21T22:23:20.454Z,101912.84
2019-01-21T22:25:54.771Z,101910.09
2019-01-21T22:28:25.970Z,101914.84
2019-01-21T22:30:57.173Z,101916.76
2019-01-21T22:33:28.383Z,101910.84
2019-01-21T22:35:59.501Z,101914.09
2019-01-21T22:38:30.681Z,101913.15
2019-01-21T22:41:02.533Z,101917.51
2019-01-21T22:43:33.773Z,101907.39
2019-01-21T22:46:05.533Z,101895.03
2019-01-21T22:48:36.777Z,101904.53
2019-01-21T22:51:08.089Z,101897.83
2019-01-21T22:53:39.733Z,101900.22
2019-01-21T22:56:10.948Z,101898.61
2019-01-21T22:58:42.283Z,101889.08
2019-01-21T23:01:24.732Z,101892.72
2019-01-21T23:03:56.832Z,101886.05
2019-01-21T23:06:29.047Z,101879.94
2019-01-21T23:09:00.122Z,101885.07
2019-01-21T23:11:31.434Z,101883.03
2019-01-21T23:14:04.443Z,101887.52
2019-01-21T23:16:36.633Z,101882.36
2019-01-21T23:19:07.857Z,101888.06
2019-01-21T23:21:39.037Z,101891.39
2019-01-21T23:24:10.221Z,101881.78
2019-01-21T23:26:41.602Z,101881.37
2019-01-21T23:29:13.931Z,101876.12
2019-01-21T23:31:45.221Z,101880.98
2019-01-21T23:34:16.484Z,101872.04
2019-01-21T23:36:48.528Z,101875.45
2019-01-21T23:39:19.916Z,101867.92
2019-01-21T23:41:51.099Z,101867.80
2019-01-21T23:44:22.846Z,101867.80
2019-01-21T23:46:54.387Z,101857.20
2019-01-21T23:49:25.556Z,101862.45
2019-01-21T23:51:56.763Z,101856.72
2019-01-21T23:54:27.980Z,101858.73
2019-01-21T23:56:59.230Z,101857.13
2019-01-21T23:59:30.922Z,101854.92
